sensor_id;sensor_type;location;lat;lon;timestamp;P1;durP1;ratioP1;P2;durP2;ratioP2
8397;SDS011;4236;54.504;9.588;2023-08-08T00:01:02;12.07;;;11.00;;
8397;SDS011;4236;54.504;9.588;2023-08-08T00:03:29;12.37;;;10.00;;
8397;SDS011;4236;54.504;9.588;2023-08-08T00:05:57;11.23;;;10.07;;
8397;SDS011;4236;54.504;9.588;2023-08-08T00:08:24;12.23;;;11.10;;
8397;SDS011;4236;54.504;9.588;2023-08-08T00:10:52;12.57;;;10.70;;
8397;SDS011;4236;54.504;9.588;2023-08-08T00:13:21;12.80;;;10.97;;
8397;SDS011;4236;54.504;9.588;2023-08-08T00:15:48;12.70;;;11.53;;
8397;SDS011;4236;54.504;9.588;2023-08-08T00:18:16;15.37;;;13.67;;
8397;SDS011;4236;54.504;9.588;2023-08-08T00:20:43;15.60;;;12.93;;
8397;SDS011;4236;54.504;9.588;2023-08-08T00:23:11;12.10;;;11.00;;
8397;SDS011;4236;54.504;9.588;2023-08-08T00:25:38;13.93;;;11.93;;
8397;SDS011;4236;54.504;9.588;2023-08-08T00:28:06;15.27;;;12.43;;
8397;SDS011;4236;54.504;9.588;2023-08-08T00:30:35;14.50;;;12.60;;
8397;SDS011;4236;54.504;9.588;2023-08-08T00:33:03;12.37;;;11.27;;
8397;SDS011;4236;54.504;9.588;2023-08-08T00:35:30;13.10;;;11.93;;
8397;SDS011;4236;54.504;9.588;2023-08-08T00:37:58;12.10;;;11.30;;
8397;SDS011;4236;54.504;9.588;2023-08-08T00:40:26;11.73;;;10.70;;
8397;SDS011;4236;54.504;9.588;2023-08-08T00:42:53;19.23;;;12.03;;
8397;SDS011;4236;54.504;9.588;2023-08-08T00:45:21;12.90;;;11.80;;
8397;SDS011;4236;54.504;9.588;2023-08-08T00:47:50;11.60;;;10.57;;
8397;SDS011;4236;54.504;9.588;2023-08-08T00:50:17;12.63;;;10.43;;
8397;SDS011;4236;54.504;9.588;2023-08-08T00:52:45;13.47;;;11.40;;
8397;SDS011;4236;54.504;9.588;2023-08-08T00:55:13;12.00;;;11.10;;
8397;SDS011;4236;54.504;9.588;2023-08-08T00:57:41;13.20;;;10.90;;
8397;SDS011;4236;54.504;9.588;2023-08-08T01:00:09;11.17;;;10.30;;
8397;SDS011;4236;54.504;9.588;2023-08-08T01:02:37;19.97;;;11.90;;
8397;SDS011;4236;54.504;9.588;2023-08-08T01:05:07;13.27;;;10.90;;
8397;SDS011;4236;54.504;9.588;2023-08-08T01:07:36;18.20;;;10.97;;
8397;SDS011;4236;54.504;9.588;2023-08-08T01:10:07;16.73;;;11.47;;
8397;SDS011;4236;54.504;9.588;2023-08-08T01:12:37;12.70;;;11.40;;
8397;SDS011;4236;54.504;9.588;2023-08-08T01:15:06;16.80;;;12.30;;
8397;SDS011;4236;54.504;9.588;2023-08-08T01:17:34;12.13;;;10.80;;
8397;SDS011;4236;54.504;9.588;2023-08-08T01:20:02;13.20;;;11.90;;
8397;SDS011;4236;54.504;9.588;2023-08-08T01:22:37;14.60;;;11.93;;
8397;SDS011;4236;54.504;9.588;2023-08-08T01:25:06;12.10;;;10.93;;
8397;SDS011;4236;54.504;9.588;2023-08-08T01:27:35;15.40;;;11.63;;
8397;SDS011;4236;54.504;9.588;2023-08-08T01:30:02;12.27;;;11.20;;
8397;SDS011;4236;54.504;9.588;2023-08-08T01:32:31;16.00;;;11.73;;
8397;SDS011;4236;54.504;9.588;2023-08-08T01:34:58;13.33;;;12.03;;
8397;SDS011;4236;54.504;9.588;2023-08-08T01:37:28;11.30;;;10.47;;
8397;SDS011;4236;54.504;9.588;2023-08-08T01:39:57;12.40;;;11.30;;
8397;SDS011;4236;54.504;9.588;2023-08-08T01:42:27;13.50;;;10.77;;
8397;SDS011;4236;54.504;9.588;2023-08-08T01:44:55;16.90;;;10.43;;
8397;SDS011;4236;54.504;9.588;2023-08-08T01:47:23;11.73;;;10.50;;
8397;SDS011;4236;54.504;9.588;2023-08-08T01:49:50;14.97;;;11.47;;
8397;SDS011;4236;54.504;9.588;2023-08-08T01:52:18;13.87;;;11.20;;
8397;SDS011;4236;54.504;9.588;2023-08-08T01:54:45;12.40;;;11.37;;
8397;SDS011;4236;54.504;9.588;2023-08-08T01:57:13;12.33;;;11.10;;
8397;SDS011;4236;54.504;9.588;2023-08-08T01:59:44;13.63;;;12.47;;
8397;SDS011;4236;54.504;9.588;2023-08-08T02:02:12;12.30;;;11.23;;
8397;SDS011;4236;54.504;9.588;2023-08-08T02:04:40;14.17;;;12.70;;
8397;SDS011;4236;54.504;9.588;2023-08-08T02:07:07;12.40;;;11.17;;
8397;SDS011;4236;54.504;9.588;2023-08-08T02:09:35;11.87;;;10.57;;
8397;SDS011;4236;54.504;9.588;2023-08-08T02:12:03;14.00;;;10.77;;
8397;SDS011;4236;54.504;9.588;2023-08-08T02:14:30;14.53;;;11.27;;
8397;SDS011;4236;54.504;9.588;2023-08-08T02:16:59;13.67;;;11.50;;
8397;SDS011;4236;54.504;9.588;2023-08-08T02:19:27;15.23;;;10.90;;
8397;SDS011;4236;54.504;9.588;2023-08-08T02:21:55;15.57;;;11.70;;
8397;SDS011;4236;54.504;9.588;2023-08-08T02:24:23;19.83;;;12.23;;
8397;SDS011;4236;54.504;9.588;2023-08-08T02:26:51;14.73;;;11.20;;
8397;SDS011;4236;54.504;9.588;2023-08-08T02:29:18;12.57;;;11.30;;
8397;SDS011;4236;54.504;9.588;2023-08-08T02:31:46;14.73;;;11.07;;
8397;SDS011;4236;54.504;9.588;2023-08-08T02:34:15;12.00;;;10.97;;
8397;SDS011;4236;54.504;9.588;2023-08-08T02:36:42;19.17;;;10.60;;
8397;SDS011;4236;54.504;9.588;2023-08-08T02:39:10;12.80;;;11.50;;
8397;SDS011;4236;54.504;9.588;2023-08-08T02:41:38;11.17;;;10.17;;
8397;SDS011;4236;54.504;9.588;2023-08-08T02:44:06;11.80;;;10.70;;
8397;SDS011;4236;54.504;9.588;2023-08-08T02:46:33;13.43;;;12.03;;
8397;SDS011;4236;54.504;9.588;2023-08-08T02:49:01;14.33;;;12.30;;
8397;SDS011;4236;54.504;9.588;2023-08-08T02:51:30;12.20;;;10.77;;
8397;SDS011;4236;54.504;9.588;2023-08-08T02:53:57;16.07;;;11.13;;
8397;SDS011;4236;54.504;9.588;2023-08-08T02:56:24;12.07;;;10.90;;
8397;SDS011;4236;54.504;9.588;2023-08-08T02:58:52;13.30;;;10.57;;
8397;SDS011;4236;54.504;9.588;2023-08-08T03:01:20;14.87;;;10.80;;
8397;SDS011;4236;54.504;9.588;2023-08-08T03:03:48;11.07;;;10.10;;
8397;SDS011;4236;54.504;9.588;2023-08-08T03:06:15;11.47;;;10.50;;
8397;SDS011;4236;54.504;9.588;2023-08-08T03:08:44;13.27;;;11.27;;
8397;SDS011;4236;54.504;9.588;2023-08-08T03:11:12;13.13;;;11.60;;
8397;SDS011;4236;54.504;9.588;2023-08-08T03:13:39;12.17;;;10.90;;
8397;SDS011;4236;54.504;9.588;2023-08-08T03:16:07;13.93;;;10.70;;
8397;SDS011;4236;54.504;9.588;2023-08-08T03:18:34;12.83;;;11.00;;
8397;SDS011;4236;54.504;9.588;2023-08-08T03:21:02;16.60;;;11.37;;
8397;SDS011;4236;54.504;9.588;2023-08-08T03:23:30;12.83;;;11.37;;
8397;SDS011;4236;54.504;9.588;2023-08-08T03:25:59;16.60;;;12.63;;
8397;SDS011;4236;54.504;9.588;2023-08-08T03:28:26;22.73;;;12.83;;
8397;SDS011;4236;54.504;9.588;2023-08-08T03:30:54;14.33;;;10.57;;
8397;SDS011;4236;54.504;9.588;2023-08-08T03:33:21;12.73;;;11.60;;
8397;SDS011;4236;54.504;9.588;2023-08-08T03:35:49;12.00;;;10.80;;
8397;SDS011;4236;54.504;9.588;2023-08-08T03:38:16;13.73;;;12.70;;
8397;SDS011;4236;54.504;9.588;2023-08-08T03:40:44;14.47;;;13.47;;
8397;SDS011;4236;54.504;9.588;2023-08-08T03:43:12;12.53;;;11.47;;
8397;SDS011;4236;54.504;9.588;2023-08-08T03:45:40;13.73;;;12.77;;
8397;SDS011;4236;54.504;9.588;2023-08-08T03:48:08;13.77;;;12.97;;
8397;SDS011;4236;54.504;9.588;2023-08-08T03:50:35;16.67;;;13.50;;
8397;SDS011;4236;54.504;9.588;2023-08-08T03:53:03;14.23;;;12.83;;
8397;SDS011;4236;54.504;9.588;2023-08-08T03:55:31;16.60;;;13.53;;
8397;SDS011;4236;54.504;9.588;2023-08-08T03:57:59;17.20;;;14.20;;
8397;SDS011;4236;54.504;9.588;2023-08-08T04:00:28;16.70;;;15.47;;
8397;SDS011;4236;54.504;9.588;2023-08-08T04:02:55;13.10;;;11.87;;
8397;SDS011;4236;54.504;9.588;2023-08-08T04:05:23;13.20;;;11.93;;
8397;SDS011;4236;54.504;9.588;2023-08-08T04:07:50;20.73;;;13.27;;
8397;SDS011;4236;54.504;9.588;2023-08-08T04:10:17;15.93;;;14.43;;
8397;SDS011;4236;54.504;9.588;2023-08-08T04:12:45;15.83;;;14.50;;
8397;SDS011;4236;54.504;9.588;2023-08-08T04:15:12;16.47;;;14.80;;
8397;SDS011;4236;54.504;9.588;2023-08-08T04:17:41;14.17;;;13.27;;
8397;SDS011;4236;54.504;9.588;2023-08-08T04:20:09;15.03;;;13.93;;
8397;SDS011;4236;54.504;9.588;2023-08-08T04:22:37;15.80;;;14.60;;
8397;SDS011;4236;54.504;9.588;2023-08-08T04:25:05;13.20;;;12.20;;
8397;SDS011;4236;54.504;9.588;2023-08-08T04:27:34;18.73;;;12.90;;
8397;SDS011;4236;54.504;9.588;2023-08-08T04:30:01;16.43;;;15.03;;
8397;SDS011;4236;54.504;9.588;2023-08-08T04:32:30;15.17;;;12.00;;
8397;SDS011;4236;54.504;9.588;2023-08-08T04:34:59;14.03;;;12.80;;
8397;SDS011;4236;54.504;9.588;2023-08-08T04:37:26;11.90;;;11.07;;
8397;SDS011;4236;54.504;9.588;2023-08-08T04:39:54;12.87;;;11.77;;
8397;SDS011;4236;54.504;9.588;2023-08-08T04:42:22;11.70;;;10.70;;
8397;SDS011;4236;54.504;9.588;2023-08-08T04:44:49;16.67;;;14.93;;
8397;SDS011;4236;54.504;9.588;2023-08-08T04:47:17;14.00;;;13.07;;
8397;SDS011;4236;54.504;9.588;2023-08-08T04:49:44;13.93;;;12.93;;
8397;SDS011;4236;54.504;9.588;2023-08-08T04:52:13;12.67;;;11.80;;
8397;SDS011;4236;54.504;9.588;2023-08-08T04:54:41;13.73;;;12.40;;
8397;SDS011;4236;54.504;9.588;2023-08-08T04:57:08;12.40;;;11.50;;
8397;SDS011;4236;54.504;9.588;2023-08-08T04:59:36;12.23;;;11.23;;
8397;SDS011;4236;54.504;9.588;2023-08-08T05:02:03;10.73;;;10.10;;
8397;SDS011;4236;54.504;9.588;2023-08-08T05:04:31;12.67;;;11.67;;
8397;SDS011;4236;54.504;9.588;2023-08-08T05:06:58;13.13;;;10.13;;
8397;SDS011;4236;54.504;9.588;2023-08-08T05:09:27;15.13;;;11.03;;
8397;SDS011;4236;54.504;9.588;2023-08-08T05:11:55;10.03;;;9.33;;
8397;SDS011;4236;54.504;9.588;2023-08-08T05:14:23;10.63;;;9.77;;
8397;SDS011;4236;54.504;9.588;2023-08-08T05:16:50;11.93;;;10.93;;
8397;SDS011;4236;54.504;9.588;2023-08-08T05:19:18;13.83;;;9.40;;
8397;SDS011;4236;54.504;9.588;2023-08-08T05:21:45;12.70;;;10.80;;
8397;SDS011;4236;54.504;9.588;2023-08-08T05:24:15;10.47;;;8.80;;
8397;SDS011;4236;54.504;9.588;2023-08-08T05:26:44;11.90;;;9.03;;
8397;SDS011;4236;54.504;9.588;2023-08-08T05:29:12;9.77;;;8.80;;
8397;SDS011;4236;54.504;9.588;2023-08-08T05:31:39;9.93;;;8.93;;
8397;SDS011;4236;54.504;9.588;2023-08-08T05:34:06;9.37;;;8.47;;
8397;SDS011;4236;54.504;9.588;2023-08-08T05:36:34;18.20;;;7.60;;
8397;SDS011;4236;54.504;9.588;2023-08-08T05:39:02;11.80;;;7.10;;
8397;SDS011;4236;54.504;9.588;2023-08-08T05:41:30;8.60;;;7.73;;
8397;SDS011;4236;54.504;9.588;2023-08-08T05:43:58;8.87;;;8.10;;
8397;SDS011;4236;54.504;9.588;2023-08-08T05:46:26;8.43;;;7.57;;
8397;SDS011;4236;54.504;9.588;2023-08-08T05:48:53;8.30;;;7.20;;
8397;SDS011;4236;54.504;9.588;2023-08-08T05:51:21;12.47;;;8.60;;
8397;SDS011;4236;54.504;9.588;2023-08-08T05:53:48;11.93;;;8.97;;
8397;SDS011;4236;54.504;9.588;2023-08-08T05:56:16;10.23;;;7.43;;
8397;SDS011;4236;54.504;9.588;2023-08-08T05:58:44;11.17;;;8.37;;
8397;SDS011;4236;54.504;9.588;2023-08-08T06:01:12;9.63;;;8.67;;
8397;SDS011;4236;54.504;9.588;2023-08-08T06:03:40;12.07;;;8.80;;
8397;SDS011;4236;54.504;9.588;2023-08-08T06:06:09;9.50;;;8.70;;
8397;SDS011;4236;54.504;9.588;2023-08-08T06:08:36;12.37;;;9.27;;
8397;SDS011;4236;54.504;9.588;2023-08-08T06:11:04;10.77;;;9.90;;
8397;SDS011;4236;54.504;9.588;2023-08-08T06:13:31;10.70;;;9.27;;
8397;SDS011;4236;54.504;9.588;2023-08-08T06:15:59;13.90;;;10.03;;
8397;SDS011;4236;54.504;9.588;2023-08-08T06:18:28;12.83;;;10.03;;
8397;SDS011;4236;54.504;9.588;2023-08-08T06:20:56;10.03;;;8.93;;
8397;SDS011;4236;54.504;9.588;2023-08-08T06:23:24;9.33;;;8.60;;
8397;SDS011;4236;54.504;9.588;2023-08-08T06:25:51;9.63;;;8.73;;
8397;SDS011;4236;54.504;9.588;2023-08-08T06:28:19;10.27;;;9.03;;
8397;SDS011;4236;54.504;9.588;2023-08-08T06:30:46;9.73;;;9.00;;
8397;SDS011;4236;54.504;9.588;2023-08-08T06:33:14;9.33;;;8.40;;
8397;SDS011;4236;54.504;9.588;2023-08-08T06:35:43;8.80;;;8.30;;
8397;SDS011;4236;54.504;9.588;2023-08-08T06:38:11;9.90;;;9.17;;
8397;SDS011;4236;54.504;9.588;2023-08-08T06:40:39;9.70;;;9.00;;
8397;SDS011;4236;54.504;9.588;2023-08-08T06:43:06;9.93;;;9.13;;
8397;SDS011;4236;54.504;9.588;2023-08-08T06:45:34;11.73;;;8.60;;
8397;SDS011;4236;54.504;9.588;2023-08-08T06:48:02;9.07;;;8.30;;
8397;SDS011;4236;54.504;9.588;2023-08-08T06:50:30;12.20;;;7.33;;
8397;SDS011;4236;54.504;9.588;2023-08-08T06:52:59;7.77;;;7.00;;
8397;SDS011;4236;54.504;9.588;2023-08-08T06:55:26;7.47;;;6.73;;
8397;SDS011;4236;54.504;9.588;2023-08-08T06:57:54;7.10;;;6.40;;
8397;SDS011;4236;54.504;9.588;2023-08-08T07:00:21;10.77;;;7.20;;
8397;SDS011;4236;54.504;9.588;2023-08-08T07:02:49;8.30;;;6.40;;
8397;SDS011;4236;54.504;9.588;2023-08-08T07:05:17;6.60;;;6.10;;
8397;SDS011;4236;54.504;9.588;2023-08-08T07:07:44;7.20;;;5.57;;
8397;SDS011;4236;54.504;9.588;2023-08-08T07:10:13;6.83;;;6.23;;
8397;SDS011;4236;54.504;9.588;2023-08-08T07:12:42;9.90;;;7.20;;
8397;SDS011;4236;54.504;9.588;2023-08-08T07:15:09;6.07;;;5.57;;
8397;SDS011;4236;54.504;9.588;2023-08-08T07:17:38;7.37;;;6.60;;
8397;SDS011;4236;54.504;9.588;2023-08-08T07:20:06;11.20;;;7.23;;
8397;SDS011;4236;54.504;9.588;2023-08-08T07:22:34;9.97;;;6.93;;
8397;SDS011;4236;54.504;9.588;2023-08-08T07:25:01;9.07;;;7.20;;
8397;SDS011;4236;54.504;9.588;2023-08-08T07:27:32;7.47;;;6.80;;
8397;SDS011;4236;54.504;9.588;2023-08-08T07:29:59;8.57;;;6.50;;
8397;SDS011;4236;54.504;9.588;2023-08-08T07:32:29;8.30;;;6.80;;
8397;SDS011;4236;54.504;9.588;2023-08-08T07:34:59;7.53;;;6.83;;
8397;SDS011;4236;54.504;9.588;2023-08-08T07:37:27;9.27;;;7.47;;
8397;SDS011;4236;54.504;9.588;2023-08-08T07:39:55;11.23;;;7.77;;
8397;SDS011;4236;54.504;9.588;2023-08-08T07:42:22;19.73;;;8.23;;
8397;SDS011;4236;54.504;9.588;2023-08-08T07:44:53;7.13;;;6.47;;
8397;SDS011;4236;54.504;9.588;2023-08-08T07:47:21;7.40;;;6.70;;
8397;SDS011;4236;54.504;9.588;2023-08-08T07:49:48;7.13;;;6.50;;
8397;SDS011;4236;54.504;9.588;2023-08-08T07:52:16;7.20;;;6.50;;
8397;SDS011;4236;54.504;9.588;2023-08-08T07:54:46;10.40;;;7.30;;
8397;SDS011;4236;54.504;9.588;2023-08-08T07:57:14;10.60;;;8.17;;
8397;SDS011;4236;54.504;9.588;2023-08-08T07:59:41;11.73;;;7.10;;
8397;SDS011;4236;54.504;9.588;2023-08-08T08:02:10;8.00;;;7.20;;
8397;SDS011;4236;54.504;9.588;2023-08-08T08:04:38;6.93;;;6.33;;
8397;SDS011;4236;54.504;9.588;2023-08-08T08:07:06;11.17;;;7.20;;
8397;SDS011;4236;54.504;9.588;2023-08-08T08:09:34;7.10;;;6.40;;
8397;SDS011;4236;54.504;9.588;2023-08-08T08:12:02;8.70;;;7.10;;
8397;SDS011;4236;54.504;9.588;2023-08-08T08:14:30;6.47;;;5.93;;
8397;SDS011;4236;54.504;9.588;2023-08-08T08:16:57;6.20;;;5.80;;
8397;SDS011;4236;54.504;9.588;2023-08-08T08:19:26;6.90;;;6.40;;
8397;SDS011;4236;54.504;9.588;2023-08-08T08:21:54;7.57;;;6.70;;
8397;SDS011;4236;54.504;9.588;2023-08-08T08:24:22;7.53;;;6.93;;
8397;SDS011;4236;54.504;9.588;2023-08-08T08:26:49;8.57;;;7.10;;
8397;SDS011;4236;54.504;9.588;2023-08-08T08:29:17;6.97;;;6.27;;
8397;SDS011;4236;54.504;9.588;2023-08-08T08:31:45;7.30;;;6.70;;
8397;SDS011;4236;54.504;9.588;2023-08-08T08:34:13;7.60;;;6.87;;
8397;SDS011;4236;54.504;9.588;2023-08-08T08:36:42;7.20;;;6.30;;
8397;SDS011;4236;54.504;9.588;2023-08-08T08:39:10;6.70;;;6.10;;
8397;SDS011;4236;54.504;9.588;2023-08-08T08:41:37;6.77;;;6.27;;
8397;SDS011;4236;54.504;9.588;2023-08-08T08:44:05;7.57;;;6.87;;
8397;SDS011;4236;54.504;9.588;2023-08-08T08:46:33;7.50;;;6.73;;
8397;SDS011;4236;54.504;9.588;2023-08-08T08:49:03;6.90;;;6.00;;
8397;SDS011;4236;54.504;9.588;2023-08-08T08:51:34;7.60;;;7.10;;
8397;SDS011;4236;54.504;9.588;2023-08-08T08:54:04;8.73;;;6.60;;
8397;SDS011;4236;54.504;9.588;2023-08-08T08:56:32;6.97;;;6.47;;
8397;SDS011;4236;54.504;9.588;2023-08-08T08:59:00;7.10;;;6.43;;
8397;SDS011;4236;54.504;9.588;2023-08-08T09:01:27;10.27;;;5.90;;
8397;SDS011;4236;54.504;9.588;2023-08-08T09:03:55;8.63;;;6.37;;
8397;SDS011;4236;54.504;9.588;2023-08-08T09:06:24;7.20;;;5.93;;
8397;SDS011;4236;54.504;9.588;2023-08-08T09:08:52;5.73;;;5.37;;
8397;SDS011;4236;54.504;9.588;2023-08-08T09:11:33;8.20;;;5.47;;
8397;SDS011;4236;54.504;9.588;2023-08-08T09:14:01;10.60;;;6.00;;
8397;SDS011;4236;54.504;9.588;2023-08-08T09:16:29;6.50;;;5.40;;
8397;SDS011;4236;54.504;9.588;2023-08-08T09:18:57;7.37;;;6.40;;
8397;SDS011;4236;54.504;9.588;2023-08-08T09:21:25;11.57;;;6.20;;
8397;SDS011;4236;54.504;9.588;2023-08-08T09:23:52;6.93;;;5.70;;
8397;SDS011;4236;54.504;9.588;2023-08-08T09:26:20;6.70;;;6.20;;
8397;SDS011;4236;54.504;9.588;2023-08-08T09:28:49;7.00;;;6.30;;
8397;SDS011;4236;54.504;9.588;2023-08-08T09:31:17;6.93;;;6.33;;
8397;SDS011;4236;54.504;9.588;2023-08-08T09:33:45;10.30;;;6.13;;
8397;SDS011;4236;54.504;9.588;2023-08-08T09:36:15;7.40;;;5.70;;
8397;SDS011;4236;54.504;9.588;2023-08-08T09:38:42;7.00;;;6.30;;
8397;SDS011;4236;54.504;9.588;2023-08-08T09:41:11;6.10;;;5.60;;
8397;SDS011;4236;54.504;9.588;2023-08-08T09:43:42;4.47;;;4.00;;
8397;SDS011;4236;54.504;9.588;2023-08-08T09:46:11;9.33;;;4.53;;
8397;SDS011;4236;54.504;9.588;2023-08-08T09:48:39;4.90;;;4.53;;
8397;SDS011;4236;54.504;9.588;2023-08-08T09:51:08;11.40;;;5.80;;
8397;SDS011;4236;54.504;9.588;2023-08-08T09:53:35;5.30;;;4.80;;
8397;SDS011;4236;54.504;9.588;2023-08-08T09:56:03;5.07;;;4.40;;
8397;SDS011;4236;54.504;9.588;2023-08-08T09:58:31;7.13;;;4.43;;
8397;SDS011;4236;54.504;9.588;2023-08-08T10:00:59;5.10;;;3.87;;
8397;SDS011;4236;54.504;9.588;2023-08-08T10:03:28;6.90;;;3.60;;
8397;SDS011;4236;54.504;9.588;2023-08-08T10:05:56;6.77;;;4.43;;
8397;SDS011;4236;54.504;9.588;2023-08-08T10:08:23;7.23;;;4.13;;
8397;SDS011;4236;54.504;9.588;2023-08-08T10:10:51;4.37;;;3.97;;
8397;SDS011;4236;54.504;9.588;2023-08-08T10:13:19;5.13;;;4.27;;
8397;SDS011;4236;54.504;9.588;2023-08-08T10:15:47;4.63;;;4.23;;
8397;SDS011;4236;54.504;9.588;2023-08-08T10:18:15;4.60;;;4.27;;
8397;SDS011;4236;54.504;9.588;2023-08-08T10:20:44;5.07;;;4.60;;
8397;SDS011;4236;54.504;9.588;2023-08-08T10:23:14;4.67;;;4.47;;
8397;SDS011;4236;54.504;9.588;2023-08-08T10:25:43;4.90;;;4.50;;
8397;SDS011;4236;54.504;9.588;2023-08-08T10:28:12;6.27;;;5.43;;
8397;SDS011;4236;54.504;9.588;2023-08-08T10:30:55;5.70;;;4.87;;
8397;SDS011;4236;54.504;9.588;2023-08-08T10:33:24;6.50;;;6.00;;
8397;SDS011;4236;54.504;9.588;2023-08-08T10:35:59;8.77;;;8.27;;
8397;SDS011;4236;54.504;9.588;2023-08-08T10:38:38;9.57;;;8.90;;
8397;SDS011;4236;54.504;9.588;2023-08-08T10:41:08;9.80;;;9.20;;
8397;SDS011;4236;54.504;9.588;2023-08-08T10:43:35;10.53;;;9.70;;
8397;SDS011;4236;54.504;9.588;2023-08-08T10:46:03;8.07;;;7.50;;
8397;SDS011;4236;54.504;9.588;2023-08-08T10:48:48;9.37;;;8.87;;
8397;SDS011;4236;54.504;9.588;2023-08-08T10:51:17;8.80;;;8.40;;
8397;SDS011;4236;54.504;9.588;2023-08-08T10:53:45;8.70;;;8.00;;
8397;SDS011;4236;54.504;9.588;2023-08-08T10:56:13;8.67;;;7.97;;
8397;SDS011;4236;54.504;9.588;2023-08-08T10:58:41;7.13;;;6.43;;
8397;SDS011;4236;54.504;9.588;2023-08-08T11:01:09;8.60;;;7.50;;
8397;SDS011;4236;54.504;9.588;2023-08-08T11:03:39;8.63;;;7.93;;
8397;SDS011;4236;54.504;9.588;2023-08-08T11:06:07;7.10;;;6.57;;
8397;SDS011;4236;54.504;9.588;2023-08-08T11:08:36;13.87;;;9.20;;
8397;SDS011;4236;54.504;9.588;2023-08-08T11:11:05;7.37;;;6.97;;
8397;SDS011;4236;54.504;9.588;2023-08-08T11:13:32;9.27;;;8.77;;
8397;SDS011;4236;54.504;9.588;2023-08-08T11:16:00;9.20;;;8.80;;
8397;SDS011;4236;54.504;9.588;2023-08-08T11:18:29;9.77;;;9.33;;
8397;SDS011;4236;54.504;9.588;2023-08-08T11:20:57;7.43;;;6.80;;
8397;SDS011;4236;54.504;9.588;2023-08-08T11:23:46;9.90;;;7.67;;
8397;SDS011;4236;54.504;9.588;2023-08-08T11:26:14;7.33;;;6.83;;
8397;SDS011;4236;54.504;9.588;2023-08-08T11:28:48;7.47;;;6.97;;
8397;SDS011;4236;54.504;9.588;2023-08-08T11:31:16;7.97;;;7.47;;
8397;SDS011;4236;54.504;9.588;2023-08-08T11:33:43;9.53;;;8.60;;
8397;SDS011;4236;54.504;9.588;2023-08-08T11:36:11;8.03;;;7.43;;
8397;SDS011;4236;54.504;9.588;2023-08-08T11:38:40;15.37;;;8.73;;
8397;SDS011;4236;54.504;9.588;2023-08-08T11:41:10;8.53;;;7.70;;
8397;SDS011;4236;54.504;9.588;2023-08-08T11:43:38;8.80;;;8.00;;
8397;SDS011;4236;54.504;9.588;2023-08-08T11:46:08;10.10;;;8.73;;
8397;SDS011;4236;54.504;9.588;2023-08-08T11:48:36;10.30;;;9.37;;
8397;SDS011;4236;54.504;9.588;2023-08-08T11:51:04;8.87;;;8.37;;
8397;SDS011;4236;54.504;9.588;2023-08-08T11:53:32;15.00;;;8.40;;
8397;SDS011;4236;54.504;9.588;2023-08-08T11:55:59;14.40;;;9.10;;
8397;SDS011;4236;54.504;9.588;2023-08-08T11:58:31;14.53;;;8.37;;
8397;SDS011;4236;54.504;9.588;2023-08-08T12:00:58;9.67;;;8.90;;
8397;SDS011;4236;54.504;9.588;2023-08-08T12:03:26;9.90;;;9.00;;
8397;SDS011;4236;54.504;9.588;2023-08-08T12:05:54;9.20;;;8.60;;
8397;SDS011;4236;54.504;9.588;2023-08-08T12:08:21;10.17;;;8.87;;
8397;SDS011;4236;54.504;9.588;2023-08-08T12:10:50;10.63;;;9.73;;
8397;SDS011;4236;54.504;9.588;2023-08-08T12:13:20;10.93;;;10.13;;
8397;SDS011;4236;54.504;9.588;2023-08-08T12:15:50;17.17;;;15.27;;
8397;SDS011;4236;54.504;9.588;2023-08-08T12:18:19;16.23;;;14.67;;
8397;SDS011;4236;54.504;9.588;2023-08-08T12:20:46;15.10;;;13.80;;
8397;SDS011;4236;54.504;9.588;2023-08-08T12:23:14;15.67;;;14.30;;
8397;SDS011;4236;54.504;9.588;2023-08-08T12:25:42;15.00;;;13.80;;
8397;SDS011;4236;54.504;9.588;2023-08-08T12:28:10;13.83;;;11.53;;
8397;SDS011;4236;54.504;9.588;2023-08-08T12:30:37;13.40;;;12.60;;
8397;SDS011;4236;54.504;9.588;2023-08-08T12:33:06;13.07;;;12.10;;
8397;SDS011;4236;54.504;9.588;2023-08-08T12:35:34;13.10;;;11.87;;
8397;SDS011;4236;54.504;9.588;2023-08-08T12:38:01;11.57;;;10.83;;
8397;SDS011;4236;54.504;9.588;2023-08-08T12:40:29;12.30;;;11.40;;
8397;SDS011;4236;54.504;9.588;2023-08-08T12:42:57;11.17;;;10.27;;
8397;SDS011;4236;54.504;9.588;2023-08-08T12:45:25;10.47;;;9.90;;
8397;SDS011;4236;54.504;9.588;2023-08-08T12:47:52;14.27;;;11.17;;
8397;SDS011;4236;54.504;9.588;2023-08-08T12:50:21;12.13;;;11.00;;
8397;SDS011;4236;54.504;9.588;2023-08-08T12:52:49;11.73;;;10.63;;
8397;SDS011;4236;54.504;9.588;2023-08-08T12:55:17;10.90;;;9.70;;
8397;SDS011;4236;54.504;9.588;2023-08-08T12:57:46;11.43;;;10.60;;
8397;SDS011;4236;54.504;9.588;2023-08-08T13:00:13;13.10;;;11.80;;
8397;SDS011;4236;54.504;9.588;2023-08-08T13:02:41;12.27;;;11.30;;
8397;SDS011;4236;54.504;9.588;2023-08-08T13:05:09;10.93;;;10.20;;
8397;SDS011;4236;54.504;9.588;2023-08-08T13:07:37;11.47;;;10.70;;
8397;SDS011;4236;54.504;9.588;2023-08-08T13:10:05;11.43;;;10.73;;
8397;SDS011;4236;54.504;9.588;2023-08-08T13:12:33;11.63;;;10.73;;
8397;SDS011;4236;54.504;9.588;2023-08-08T13:15:01;10.40;;;9.60;;
8397;SDS011;4236;54.504;9.588;2023-08-08T13:17:31;11.00;;;10.33;;
8397;SDS011;4236;54.504;9.588;2023-08-08T13:19:58;10.30;;;9.50;;
8397;SDS011;4236;54.504;9.588;2023-08-08T13:22:26;16.77;;;10.20;;
8397;SDS011;4236;54.504;9.588;2023-08-08T13:24:55;7.60;;;7.10;;
8397;SDS011;4236;54.504;9.588;2023-08-08T13:27:23;9.33;;;8.73;;
8397;SDS011;4236;54.504;9.588;2023-08-08T13:29:50;9.33;;;8.60;;
8397;SDS011;4236;54.504;9.588;2023-08-08T13:32:18;10.20;;;9.40;;
8397;SDS011;4236;54.504;9.588;2023-08-08T13:34:46;9.87;;;8.80;;
8397;SDS011;4236;54.504;9.588;2023-08-08T13:37:13;9.37;;;8.73;;
8397;SDS011;4236;54.504;9.588;2023-08-08T13:39:41;10.07;;;8.87;;
8397;SDS011;4236;54.504;9.588;2023-08-08T13:42:10;14.03;;;10.20;;
8397;SDS011;4236;54.504;9.588;2023-08-08T13:44:38;9.70;;;8.93;;
8397;SDS011;4236;54.504;9.588;2023-08-08T13:47:05;10.83;;;9.90;;
8397;SDS011;4236;54.504;9.588;2023-08-08T13:49:33;10.37;;;9.40;;
8397;SDS011;4236;54.504;9.588;2023-08-08T13:52:02;10.63;;;9.60;;
8397;SDS011;4236;54.504;9.588;2023-08-08T13:54:29;9.53;;;8.83;;
8397;SDS011;4236;54.504;9.588;2023-08-08T13:56:57;11.20;;;10.20;;
8397;SDS011;4236;54.504;9.588;2023-08-08T13:59:26;10.97;;;9.40;;
8397;SDS011;4236;54.504;9.588;2023-08-08T14:01:54;9.53;;;8.70;;
8397;SDS011;4236;54.504;9.588;2023-08-08T14:04:21;8.90;;;8.30;;
8397;SDS011;4236;54.504;9.588;2023-08-08T14:06:49;9.93;;;8.50;;
8397;SDS011;4236;54.504;9.588;2023-08-08T14:09:17;7.97;;;7.37;;
8397;SDS011;4236;54.504;9.588;2023-08-08T14:11:45;9.07;;;8.37;;
8397;SDS011;4236;54.504;9.588;2023-08-08T14:14:13;9.17;;;8.67;;
8397;SDS011;4236;54.504;9.588;2023-08-08T14:16:42;10.03;;;9.17;;
8397;SDS011;4236;54.504;9.588;2023-08-08T14:19:10;9.73;;;7.50;;
8397;SDS011;4236;54.504;9.588;2023-08-08T14:21:39;10.53;;;8.67;;
8397;SDS011;4236;54.504;9.588;2023-08-08T14:24:07;7.80;;;7.00;;
8397;SDS011;4236;54.504;9.588;2023-08-08T14:26:34;9.33;;;8.47;;
8397;SDS011;4236;54.504;9.588;2023-08-08T14:29:02;7.83;;;7.10;;
8397;SDS011;4236;54.504;9.588;2023-08-08T14:31:29;10.00;;;8.03;;
8397;SDS011;4236;54.504;9.588;2023-08-08T14:34:07;15.27;;;8.00;;
8397;SDS011;4236;54.504;9.588;2023-08-08T14:36:34;10.73;;;8.77;;
8397;SDS011;4236;54.504;9.588;2023-08-08T14:39:02;15.50;;;9.20;;
8397;SDS011;4236;54.504;9.588;2023-08-08T14:41:30;9.90;;;9.00;;
8397;SDS011;4236;54.504;9.588;2023-08-08T14:43:57;12.37;;;10.30;;
8397;SDS011;4236;54.504;9.588;2023-08-08T14:46:25;10.50;;;9.63;;
8397;SDS011;4236;54.504;9.588;2023-08-08T14:48:52;10.17;;;9.37;;
8397;SDS011;4236;54.504;9.588;2023-08-08T14:51:21;9.80;;;9.00;;
8397;SDS011;4236;54.504;9.588;2023-08-08T14:53:50;10.17;;;9.07;;
8397;SDS011;4236;54.504;9.588;2023-08-08T14:56:17;8.97;;;8.37;;
8397;SDS011;4236;54.504;9.588;2023-08-08T14:58:45;9.70;;;8.57;;
8397;SDS011;4236;54.504;9.588;2023-08-08T15:01:12;11.67;;;8.60;;
8397;SDS011;4236;54.504;9.588;2023-08-08T15:03:40;9.63;;;8.93;;
8397;SDS011;4236;54.504;9.588;2023-08-08T15:06:09;13.37;;;10.23;;